createdAt,value
2023-05-10T00:02:27.406Z,1.08
2023-05-10T00:05:15.422Z,0.90
2023-05-10T00:08:02.599Z,1.20
2023-05-10T00:10:50.458Z,1.20
2023-05-10T00:13:37.722Z,1.25
2023-05-10T00:16:25.143Z,1.35
2023-05-10T00:19:12.320Z,1.40
2023-05-10T00:21:59.551Z,1.40
2023-05-10T00:24:46.812Z,1.60
2023-05-10T00:27:34.003Z,1.30
2023-05-10T00:30:21.298Z,1.50
2023-05-10T00:33:08.470Z,1.30
2023-05-10T00:35:55.601Z,1.48
2023-05-10T00:38:42.939Z,1.60
2023-05-10T00:41:33.709Z,1.40
2023-05-10T00:44:22.351Z,1.25
2023-05-10T00:47:10.254Z,1.40
2023-05-10T00:49:57.781Z,1.38
2023-05-10T00:52:45.010Z,1.20
2023-05-10T00:55:32.361Z,1.10
2023-05-10T00:58:19.579Z,1.20
2023-05-10T01:01:07.999Z,1.42
2023-05-10T01:03:56.246Z,1.80
2023-05-10T01:06:44.096Z,1.48
2023-05-10T01:09:32.102Z,1.85
2023-05-10T01:12:19.412Z,2.40
2023-05-10T01:15:08.940Z,1.95
2023-05-10T01:17:57.452Z,2.20
2023-05-10T01:20:49.889Z,2.20
2023-05-10T01:23:43.093Z,2.55
2023-05-10T01:26:33.468Z,2.50
2023-05-10T01:30:09.208Z,2.80
2023-05-10T01:33:20.656Z,2.95
2023-05-10T01:36:29.765Z,2.53
2023-05-10T01:39:26.668Z,3.30
2023-05-10T01:42:26.399Z,3.10
2023-05-10T01:45:22.458Z,3.03
2023-05-10T01:48:12.320Z,3.15
2023-05-10T01:51:00.045Z,3.22
2023-05-10T01:53:49.766Z,2.80
2023-05-10T01:56:40.364Z,3.33
2023-05-10T01:59:31.720Z,3.15
2023-05-10T02:02:21.746Z,2.33
2023-05-10T02:05:10.324Z,3.00
2023-05-10T02:07:59.104Z,2.40
2023-05-10T02:10:48.616Z,3.35
2023-05-10T02:13:37.756Z,2.78
2023-05-10T02:16:27.447Z,3.58
2023-05-10T02:19:16.524Z,3.30
2023-05-10T02:22:04.384Z,3.42
2023-05-10T02:24:55.982Z,3.85
2023-05-10T02:27:45.110Z,3.47
2023-05-10T02:30:35.761Z,4.80
2023-05-10T02:33:24.868Z,3.90
2023-05-10T02:36:14.691Z,4.75
2023-05-10T02:39:03.016Z,4.97
2023-05-10T02:41:53.129Z,4.60
2023-05-10T02:44:42.572Z,4.00
2023-05-10T02:47:30.700Z,4.10
2023-05-10T02:50:18.257Z,4.13
2023-05-10T02:53:11.875Z,4.80
2023-05-10T02:56:02.743Z,4.82
2023-05-10T02:58:49.878Z,5.22
2023-05-10T03:04:54.565Z,4.82
2023-05-10T03:07:42.675Z,5.50
2023-05-10T03:17:53.814Z,4.53
2023-05-10T03:33:56.579Z,5.57
2023-05-10T03:43:21.618Z,5.03
2023-05-10T03:46:08.874Z,5.22
2023-05-10T03:48:56.222Z,5.07
2023-05-10T03:51:44.769Z,5.32
2023-05-10T03:54:32.205Z,5.10
2023-05-10T03:57:19.964Z,4.93
2023-05-10T04:00:07.913Z,5.10
2023-05-10T04:03:04.624Z,6.25
2023-05-10T04:06:01.094Z,5.78
2023-05-10T04:08:48.319Z,5.70
2023-05-10T04:11:35.709Z,4.95
2023-05-10T04:14:23.505Z,4.30
2023-05-10T04:17:11.577Z,4.10
2023-05-10T04:19:58.825Z,4.85
2023-05-10T04:22:46.006Z,4.88
2023-05-10T04:25:35.820Z,5.05
2023-05-10T04:28:23.084Z,5.15
2023-05-10T04:31:11.009Z,4.43
2023-05-10T04:33:58.158Z,5.18
2023-05-10T04:36:45.374Z,4.18
2023-05-10T04:39:33.272Z,4.53
2023-05-10T04:45:54.362Z,2.80
2023-05-10T04:48:41.527Z,3.25
2023-05-10T04:51:29.431Z,3.03
2023-05-10T04:54:16.984Z,4.50
2023-05-10T04:57:04.457Z,4.60
2023-05-10T04:59:51.961Z,4.63
2023-05-10T05:02:39.524Z,5.80
2023-05-10T05:05:26.774Z,5.53
2023-05-10T05:08:14.171Z,5.07
2023-05-10T05:11:01.418Z,5.30
2023-05-10T05:13:48.524Z,5.93
2023-05-10T05:37:01.440Z,6.10
2023-05-10T05:43:04.520Z,6.03
2023-05-10T05:45:53.961Z,5.75
2023-05-10T05:48:41.186Z,5.95
2023-05-10T05:51:28.404Z,5.80
2023-05-10T05:57:32.900Z,5.40
2023-05-10T06:17:07.920Z,4.47
2023-05-10T06:19:55.217Z,4.53
2023-05-10T06:22:42.690Z,4.50
2023-05-10T06:25:30.209Z,4.03
2023-05-10T06:28:17.592Z,3.97
2023-05-10T06:31:05.422Z,3.67
2023-05-10T06:33:54.148Z,4.20
2023-05-10T06:36:49.521Z,3.92
2023-05-10T06:39:45.475Z,4.05
2023-05-10T06:42:58.436Z,4.40
2023-05-10T06:45:59.333Z,4.00
2023-05-10T06:49:25.312Z,3.67
2023-05-10T06:52:19.387Z,4.20
2023-05-10T06:58:54.375Z,4.30
2023-05-10T07:05:33.308Z,3.50
2023-05-10T07:08:20.610Z,3.05
2023-05-10T07:11:11.667Z,3.58
2023-05-10T07:16:48.243Z,3.63
2023-05-10T07:19:35.569Z,3.53
2023-05-10T07:22:23.105Z,3.40
2023-05-10T07:25:10.585Z,3.20
2023-05-10T07:27:57.793Z,2.60
2023-05-10T07:30:45.242Z,2.40
2023-05-10T07:33:32.458Z,2.17
2023-05-10T07:36:19.583Z,2.15
2023-05-10T07:39:06.858Z,2.00
2023-05-10T07:41:54.403Z,2.40
2023-05-10T07:44:41.819Z,1.90
2023-05-10T07:47:29.037Z,1.80
2023-05-10T07:50:16.614Z,1.70
2023-05-10T07:53:03.780Z,1.77
2023-05-10T07:56:00.399Z,1.80
2023-05-10T07:58:47.595Z,2.22
2023-05-10T08:01:36.013Z,1.70
2023-05-10T08:04:24.348Z,1.70
2023-05-10T08:07:11.810Z,1.42
2023-05-10T08:09:58.937Z,1.70
2023-05-10T08:12:46.161Z,1.90
2023-05-10T08:15:33.420Z,1.70
2023-05-10T08:18:22.064Z,1.60
2023-05-10T08:21:10.005Z,1.77
2023-05-10T08:26:40.742Z,1.90
2023-05-10T08:30:07.777Z,1.52
2023-05-10T08:32:51.605Z,1.50
2023-05-10T08:35:38.912Z,1.50
2023-05-10T08:38:26.892Z,1.58
2023-05-10T08:44:33.581Z,1.33
2023-05-10T08:47:21.629Z,1.60
2023-05-10T08:50:09.429Z,1.40
2023-05-10T08:53:03.378Z,1.55
2023-05-10T08:55:50.927Z,1.40
2023-05-10T08:59:17.601Z,1.83
2023-05-10T09:02:06.371Z,1.65
2023-05-10T09:04:54.325Z,2.10
2023-05-10T09:07:41.590Z,2.08
2023-05-10T09:10:31.105Z,2.20
2023-05-10T09:13:19.597Z,2.33
2023-05-10T09:16:19.927Z,2.17
2023-05-10T09:29:15.976Z,1.67
2023-05-10T09:32:04.720Z,1.60
2023-05-10T09:34:52.111Z,1.77
2023-05-10T09:37:43.869Z,1.63
2023-05-10T09:40:31.761Z,1.60
2023-05-10T09:43:18.967Z,1.85
2023-05-10T10:20:13.959Z,1.30
2023-05-10T10:23:01.384Z,1.20
2023-05-10T10:25:49.991Z,1.20
2023-05-10T10:28:49.634Z,1.10
2023-05-10T10:32:08.780Z,1.10
2023-05-10T10:34:57.220Z,1.38
2023-05-10T10:37:51.246Z,1.30
2023-05-10T10:40:39.112Z,1.40
2023-05-10T10:43:28.336Z,1.20
2023-05-10T10:46:19.235Z,1.50
2023-05-10T10:52:16.968Z,1.10
2023-05-10T10:55:08.052Z,0.85
2023-05-10T11:00:48.915Z,0.80
2023-05-10T11:03:36.100Z,0.88
2023-05-10T11:06:32.762Z,0.93
2023-05-10T11:09:21.720Z,1.02
2023-05-10T11:12:11.940Z,0.90
2023-05-10T11:14:59.319Z,1.05
2023-05-10T11:17:51.662Z,2.25
2023-05-10T11:57:31.041Z,1.05
2023-05-10T12:03:59.600Z,0.90
2023-05-10T12:13:33.388Z,1.25
2023-05-10T12:16:25.651Z,1.20
2023-05-10T12:19:12.834Z,1.63
2023-05-10T12:22:00.192Z,1.90
2023-05-10T12:24:47.606Z,1.50
2023-05-10T12:27:34.824Z,1.70
2023-05-10T12:30:26.384Z,1.75
2023-05-10T12:33:19.197Z,1.65
2023-05-10T12:36:07.704Z,2.00
2023-05-10T12:39:03.772Z,1.58
2023-05-10T12:41:52.432Z,1.45
2023-05-10T12:44:40.205Z,1.50
2023-05-10T12:47:37.681Z,1.20
2023-05-10T12:50:25.680Z,1.27
2023-05-10T12:53:16.526Z,1.30
2023-05-10T12:56:04.200Z,1.25
2023-05-10T12:58:52.012Z,1.35
2023-05-10T13:01:39.544Z,1.42
2023-05-10T13:04:26.930Z,1.90
2023-05-10T13:07:14.435Z,1.45
2023-05-10T13:10:01.570Z,1.33
2023-05-10T13:12:48.979Z,1.50
2023-05-10T13:15:36.335Z,1.27
2023-05-10T13:18:23.667Z,1.40
2023-05-10T13:21:10.954Z,1.10
2023-05-10T13:24:01.206Z,1.20
2023-05-10T13:26:48.452Z,1.45
2023-05-10T13:29:35.762Z,1.23
2023-05-10T13:32:23.057Z,1.00
2023-05-10T13:35:10.278Z,1.30
2023-05-10T13:37:58.754Z,1.40
2023-05-10T13:40:46.004Z,1.20
2023-05-10T13:43:33.549Z,1.58
2023-05-10T13:46:12.516Z,1.63
2023-05-10T13:48:59.750Z,1.25
2023-05-10T13:55:41.312Z,1.30
2023-05-10T14:18:33.062Z,1.10
2023-05-10T14:21:53.552Z,2.10
2023-05-10T14:44:48.516Z,1.38
2023-05-10T14:47:35.711Z,1.20
2023-05-10T14:50:35.793Z,1.75
2023-05-10T14:53:23.629Z,1.60
2023-05-10T14:56:10.844Z,1.20
2023-05-10T14:59:07.804Z,1.40
2023-05-10T15:02:05.891Z,1.40
2023-05-10T15:04:53.698Z,1.20
2023-05-10T15:07:56.277Z,1.33
2023-05-10T15:10:43.875Z,0.90
2023-05-10T15:13:31.047Z,1.00
2023-05-10T15:16:18.311Z,0.80
2023-05-10T15:19:05.683Z,1.15
2023-05-10T15:21:52.986Z,1.00
2023-05-10T15:24:40.101Z,1.10
2023-05-10T15:27:27.358Z,0.90
2023-05-10T15:30:14.713Z,1.02
2023-05-10T15:33:02.107Z,1.10
2023-05-10T15:35:49.425Z,1.10
2023-05-10T15:38:37.697Z,1.05
2023-05-10T15:41:25.635Z,1.00
2023-05-10T15:44:13.022Z,0.80
2023-05-10T15:47:00.212Z,1.20
2023-05-10T15:49:47.330Z,0.93
2023-05-10T15:52:34.936Z,1.65
2023-05-10T15:55:22.257Z,0.98
2023-05-10T15:58:09.477Z,0.90
2023-05-10T16:00:57.727Z,1.30
2023-05-10T16:03:44.964Z,1.10
2023-05-10T16:06:32.749Z,1.20
2023-05-10T16:09:19.919Z,1.00
2023-05-10T16:12:08.320Z,1.00
2023-05-10T16:14:55.514Z,1.00
2023-05-10T16:17:43.100Z,1.02
2023-05-10T16:20:30.723Z,1.00
2023-05-10T16:23:18.030Z,1.60
2023-05-10T16:26:05.563Z,2.67
2023-05-10T16:28:52.753Z,1.42
2023-05-10T16:31:39.994Z,2.08
2023-05-10T16:34:27.200Z,1.80
2023-05-10T16:37:14.419Z,4.55
2023-05-10T16:40:01.654Z,1.95
2023-05-10T16:42:48.921Z,2.45
2023-05-10T16:45:36.754Z,1.08
2023-05-10T16:48:24.289Z,2.28
2023-05-10T16:51:12.485Z,2.10
2023-05-10T16:53:59.892Z,1.08
2023-05-10T16:56:47.188Z,0.90
2023-05-10T16:59:34.408Z,1.55
2023-05-10T17:02:22.157Z,1.20
2023-05-10T17:05:09.767Z,1.13
2023-05-10T17:07:56.945Z,1.85
2023-05-10T17:10:44.170Z,2.25
2023-05-10T17:13:31.932Z,1.60
2023-05-10T17:16:21.098Z,2.38
2023-05-10T17:19:09.685Z,1.42
2023-05-10T17:21:57.174Z,1.10
2023-05-10T17:24:45.609Z,0.90
2023-05-10T17:27:32.867Z,0.73
2023-05-10T17:30:26.032Z,1.08
2023-05-10T17:33:13.232Z,1.00
2023-05-10T17:36:00.414Z,1.10
2023-05-10T17:38:47.657Z,0.98
2023-05-10T17:41:34.857Z,1.00
2023-05-10T17:44:22.025Z,1.10
2023-05-10T17:47:09.349Z,0.90
2023-05-10T17:49:56.652Z,1.00
2023-05-10T17:52:43.836Z,0.90
2023-05-10T17:55:31.101Z,0.90
2023-05-10T17:58:18.287Z,1.00
2023-05-10T18:01:05.858Z,1.08
2023-05-10T18:03:53.151Z,1.00
2023-05-10T18:06:40.789Z,0.93
2023-05-10T18:09:28.983Z,1.00
2023-05-10T18:12:16.118Z,0.80
2023-05-10T18:15:03.733Z,1.08
2023-05-10T18:17:50.898Z,1.05
2023-05-10T18:20:38.303Z,1.27
2023-05-10T18:23:25.612Z,1.30
2023-05-10T18:26:13.147Z,1.23
2023-05-10T18:29:01.628Z,1.20
2023-05-10T18:31:48.889Z,1.10
2023-05-10T18:34:36.133Z,1.02
2023-05-10T18:37:23.454Z,1.20
2023-05-10T18:40:12.670Z,1.05
2023-05-10T18:43:00.309Z,1.30
2023-05-10T18:45:47.645Z,1.30
2023-05-10T18:48:34.806Z,1.20
2023-05-10T18:51:22.696Z,1.40
2023-05-10T18:54:09.951Z,1.20
2023-05-10T18:56:58.645Z,1.10
2023-05-10T18:59:45.972Z,1.20
2023-05-10T19:02:33.168Z,1.15
2023-05-10T19:05:20.626Z,1.30
2023-05-10T19:08:08.639Z,1.15
2023-05-10T19:10:55.939Z,1.35
2023-05-10T19:13:45.170Z,1.10
2023-05-10T19:16:34.435Z,1.40
2023-05-10T19:19:23.940Z,1.30
2023-05-10T19:22:12.569Z,1.27
2023-05-10T19:25:00.335Z,1.20
2023-05-10T19:27:47.823Z,1.30
2023-05-10T19:30:35.090Z,1.42
2023-05-10T19:33:22.858Z,1.40
2023-05-10T19:36:10.111Z,1.40
2023-05-10T19:38:57.595Z,1.27
2023-05-10T19:41:44.906Z,1.23
2023-05-10T19:44:32.185Z,1.20
2023-05-10T19:47:19.425Z,1.30
2023-05-10T19:50:07.438Z,1.40
2023-05-10T19:52:54.918Z,1.58
2023-05-10T19:55:43.969Z,1.48
2023-05-10T19:58:31.234Z,1.50
2023-05-10T20:01:18.649Z,1.25
2023-05-10T20:04:06.072Z,1.38
2023-05-10T20:06:53.382Z,1.30
2023-05-10T20:09:43.842Z,1.10
2023-05-10T20:12:31.163Z,1.33
2023-05-10T20:15:20.909Z,1.10
2023-05-10T20:18:08.305Z,1.10
2023-05-10T20:20:59.362Z,1.23
2023-05-10T20:26:34.064Z,0.90
2023-05-10T20:29:21.469Z,0.93
2023-05-10T20:32:08.776Z,1.00
2023-05-10T20:34:56.229Z,1.10
2023-05-10T20:37:43.492Z,0.85
2023-05-10T20:40:30.639Z,1.00
2023-05-10T20:43:18.860Z,1.00
2023-05-10T20:46:06.580Z,0.90
2023-05-10T20:48:54.229Z,0.93
2023-05-10T20:51:41.508Z,1.17
2023-05-10T20:54:28.812Z,1.10
2023-05-10T20:57:16.090Z,0.77
2023-05-10T21:00:03.831Z,0.90
2023-05-10T21:02:51.199Z,0.90
2023-05-10T21:05:38.720Z,1.00
2023-05-10T21:08:25.917Z,0.90
2023-05-10T21:11:13.284Z,0.93
2023-05-10T21:14:00.615Z,0.90
2023-05-10T21:16:47.880Z,1.17
2023-05-10T21:19:35.031Z,1.25
2023-05-10T21:22:22.204Z,1.00
2023-05-10T21:25:09.834Z,1.20
2023-05-10T21:27:57.169Z,1.25
2023-05-10T21:30:44.415Z,1.30
2023-05-10T21:33:31.666Z,1.45
2023-05-10T21:36:19.057Z,1.23
2023-05-10T21:39:06.506Z,1.10
2023-05-10T21:41:53.844Z,1.10
2023-05-10T21:44:41.174Z,1.10
2023-05-10T21:47:28.810Z,0.82
2023-05-10T21:50:16.209Z,0.90
2023-05-10T21:53:03.864Z,0.90
2023-05-10T21:55:51.170Z,0.80
2023-05-10T21:58:38.398Z,1.05
2023-05-10T22:01:25.742Z,0.80
2023-05-10T22:04:13.146Z,0.98
2023-05-10T22:07:00.427Z,0.90
2023-05-10T22:09:47.646Z,0.77
2023-05-10T22:12:34.946Z,0.90
2023-05-10T22:15:22.268Z,0.70
2023-05-10T22:18:09.745Z,0.77
2023-05-10T22:20:57.023Z,0.70
2023-05-10T22:23:44.483Z,2.05
2023-05-10T22:26:31.639Z,0.80
2023-05-10T22:29:18.915Z,1.08
2023-05-10T22:32:06.552Z,0.98
2023-05-10T22:34:53.863Z,0.75
2023-05-10T22:37:41.766Z,0.70
2023-05-10T22:40:29.005Z,0.73
2023-05-10T22:43:16.749Z,0.70
2023-05-10T22:46:04.082Z,0.70
2023-05-10T22:48:52.375Z,0.90
2023-05-10T22:51:39.734Z,0.90
2023-05-10T22:54:27.803Z,1.40
2023-05-10T22:57:16.094Z,1.02
2023-05-10T23:00:05.154Z,0.73
2023-05-10T23:02:52.981Z,0.80
2023-05-10T23:05:40.576Z,0.90
2023-05-10T23:08:28.138Z,0.90
2023-05-10T23:11:15.466Z,0.82
2023-05-10T23:14:02.697Z,1.10
2023-05-10T23:16:49.999Z,0.88
2023-05-10T23:19:37.359Z,0.80
2023-05-10T23:22:24.865Z,1.10
2023-05-10T23:25:12.301Z,1.00
2023-05-10T23:27:59.484Z,1.02
2023-05-10T23:30:46.737Z,1.00
2023-05-10T23:33:33.924Z,0.82
2023-05-10T23:36:21.152Z,0.90
2023-05-10T23:39:08.410Z,1.00
2023-05-10T23:41:55.730Z,1.05
2023-05-10T23:44:42.843Z,1.00
2023-05-10T23:47:30.113Z,1.00
2023-05-10T23:50:17.503Z,0.90
2023-05-10T23:53:05.297Z,0.90
2023-05-10T23:55:52.724Z,0.93
2023-05-10T23:58:39.923Z,1.00
